Crystal Hills, Colorado
Current Conditions -  °F | °C
As of 7:56 AM on Monday 22 Dec 2014 (Local Time) from KCWN Reporting Station
Broken Clouds Broken Clouds  
Wind Chill: 26°   Ceiling: 7000
Heat Index: 31°   Visibility: 10mi
Dew Point: 22°   Wind: 6mph
Humidity: 67%   Direction: 330°NNW
Pressure: 29.73"   Gusts: NA
Location:  38.8344°N, 104.938°W
Report Text: KCWN 221456Z AUTO 33005KT 10SM BKN070 00/M06 A2973 RMK AO2 SNB12E20SHSNB20E32 SLP073 60002 T10031058 51007
Loading
Personal Weather Stations






























Interactive Weather Map New forecast layout! Learn more

10-Day Weather Forecast

Advertisements
Track Severe Weather on mobile